sensor_id;sensor_type;location;lat;lon;timestamp;P1;durP1;ratioP1;P2;durP2;ratioP2
8086;SDS011;4086;54.412;9.980;2023-04-03T00:00:19;4.53;;;2.30;;
8086;SDS011;4086;54.412;9.980;2023-04-03T00:02:45;2.60;;;1.70;;
8086;SDS011;4086;54.412;9.980;2023-04-03T00:05:11;2.80;;;1.50;;
8086;SDS011;4086;54.412;9.980;2023-04-03T00:07:38;3.07;;;1.40;;
8086;SDS011;4086;54.412;9.980;2023-04-03T00:10:04;1.57;;;1.20;;
8086;SDS011;4086;54.412;9.980;2023-04-03T00:12:31;3.77;;;1.50;;
8086;SDS011;4086;54.412;9.980;2023-04-03T00:14:57;1.40;;;1.17;;
8086;SDS011;4086;54.412;9.980;2023-04-03T00:17:24;1.57;;;1.40;;
8086;SDS011;4086;54.412;9.980;2023-04-03T00:19:51;2.10;;;1.50;;
8086;SDS011;4086;54.412;9.980;2023-04-03T00:22:17;1.97;;;1.50;;
8086;SDS011;4086;54.412;9.980;2023-04-03T00:24:43;1.30;;;1.20;;
8086;SDS011;4086;54.412;9.980;2023-04-03T00:27:09;2.20;;;1.20;;
8086;SDS011;4086;54.412;9.980;2023-04-03T00:29:36;1.30;;;1.20;;
8086;SDS011;4086;54.412;9.980;2023-04-03T00:32:02;2.67;;;1.20;;
8086;SDS011;4086;54.412;9.980;2023-04-03T00:34:30;1.60;;;1.20;;
8086;SDS011;4086;54.412;9.980;2023-04-03T00:36:56;4.40;;;1.77;;
8086;SDS011;4086;54.412;9.980;2023-04-03T00:39:23;2.50;;;1.40;;
8086;SDS011;4086;54.412;9.980;2023-04-03T00:41:49;1.43;;;1.00;;
8086;SDS011;4086;54.412;9.980;2023-04-03T00:44:19;3.07;;;1.33;;
8086;SDS011;4086;54.412;9.980;2023-04-03T00:46:45;4.77;;;1.50;;
8086;SDS011;4086;54.412;9.980;2023-04-03T00:49:12;1.87;;;1.10;;
8086;SDS011;4086;54.412;9.980;2023-04-03T00:51:39;1.40;;;1.30;;
8086;SDS011;4086;54.412;9.980;2023-04-03T00:54:06;3.03;;;1.43;;
8086;SDS011;4086;54.412;9.980;2023-04-03T00:56:33;2.07;;;1.30;;
8086;SDS011;4086;54.412;9.980;2023-04-03T00:59:02;2.43;;;1.30;;
8086;SDS011;4086;54.412;9.980;2023-04-03T01:01:30;2.33;;;1.47;;
8086;SDS011;4086;54.412;9.980;2023-04-03T01:03:57;1.70;;;1.13;;
8086;SDS011;4086;54.412;9.980;2023-04-03T01:06:25;2.43;;;1.30;;
8086;SDS011;4086;54.412;9.980;2023-04-03T01:08:53;2.30;;;1.40;;
8086;SDS011;4086;54.412;9.980;2023-04-03T01:11:20;2.97;;;1.47;;
8086;SDS011;4086;54.412;9.980;2023-04-03T01:13:46;1.53;;;1.40;;
8086;SDS011;4086;54.412;9.980;2023-04-03T01:16:14;1.27;;;1.10;;
8086;SDS011;4086;54.412;9.980;2023-04-03T01:18:40;1.90;;;1.43;;
8086;SDS011;4086;54.412;9.980;2023-04-03T01:23:56;3.10;;;1.50;;
8086;SDS011;4086;54.412;9.980;2023-04-03T01:26:23;2.50;;;1.70;;
8086;SDS011;4086;54.412;9.980;2023-04-03T01:28:50;3.67;;;1.60;;
8086;SDS011;4086;54.412;9.980;2023-04-03T01:31:20;1.60;;;1.50;;
8086;SDS011;4086;54.412;9.980;2023-04-03T01:33:49;2.30;;;1.50;;
8086;SDS011;4086;54.412;9.980;2023-04-03T01:36:16;3.50;;;1.50;;
8086;SDS011;4086;54.412;9.980;2023-04-03T01:38:43;4.33;;;1.60;;
8086;SDS011;4086;54.412;9.980;2023-04-03T01:41:09;2.63;;;1.50;;
8086;SDS011;4086;54.412;9.980;2023-04-03T01:43:35;2.77;;;1.70;;
8086;SDS011;4086;54.412;9.980;2023-04-03T01:46:01;1.50;;;1.40;;
8086;SDS011;4086;54.412;9.980;2023-04-03T01:48:28;2.93;;;1.40;;
8086;SDS011;4086;54.412;9.980;2023-04-03T01:50:56;2.03;;;1.33;;
8086;SDS011;4086;54.412;9.980;2023-04-03T01:53:23;1.40;;;1.20;;
8086;SDS011;4086;54.412;9.980;2023-04-03T01:55:49;3.80;;;1.40;;
8086;SDS011;4086;54.412;9.980;2023-04-03T01:58:15;1.43;;;1.33;;
8086;SDS011;4086;54.412;9.980;2023-04-03T02:00:41;2.70;;;1.57;;
8086;SDS011;4086;54.412;9.980;2023-04-03T02:03:08;1.97;;;1.53;;
8086;SDS011;4086;54.412;9.980;2023-04-03T02:05:34;1.70;;;1.47;;
8086;SDS011;4086;54.412;9.980;2023-04-03T02:08:02;1.37;;;1.27;;
8086;SDS011;4086;54.412;9.980;2023-04-03T02:10:28;1.53;;;1.33;;
8086;SDS011;4086;54.412;9.980;2023-04-03T02:12:55;1.43;;;1.20;;
8086;SDS011;4086;54.412;9.980;2023-04-03T02:15:21;1.43;;;1.33;;
8086;SDS011;4086;54.412;9.980;2023-04-03T02:17:47;3.00;;;1.37;;
8086;SDS011;4086;54.412;9.980;2023-04-03T02:20:13;4.07;;;1.70;;
8086;SDS011;4086;54.412;9.980;2023-04-03T02:22:40;3.03;;;1.60;;
8086;SDS011;4086;54.412;9.980;2023-04-03T02:25:08;2.53;;;1.67;;
8086;SDS011;4086;54.412;9.980;2023-04-03T02:27:35;2.67;;;1.53;;
8086;SDS011;4086;54.412;9.980;2023-04-03T02:30:01;1.83;;;1.40;;
8086;SDS011;4086;54.412;9.980;2023-04-03T02:32:27;2.60;;;1.90;;
8086;SDS011;4086;54.412;9.980;2023-04-03T02:34:54;2.67;;;1.37;;
8086;SDS011;4086;54.412;9.980;2023-04-03T02:37:20;3.17;;;1.20;;
8086;SDS011;4086;54.412;9.980;2023-04-03T02:39:46;2.40;;;1.60;;
8086;SDS011;4086;54.412;9.980;2023-04-03T02:42:14;3.67;;;1.40;;
8086;SDS011;4086;54.412;9.980;2023-04-03T02:44:40;1.70;;;1.47;;
8086;SDS011;4086;54.412;9.980;2023-04-03T02:47:06;1.53;;;1.30;;
8086;SDS011;4086;54.412;9.980;2023-04-03T02:49:33;3.87;;;1.70;;
8086;SDS011;4086;54.412;9.980;2023-04-03T02:51:59;3.50;;;1.70;;
8086;SDS011;4086;54.412;9.980;2023-04-03T02:54:25;3.13;;;1.83;;
8086;SDS011;4086;54.412;9.980;2023-04-03T02:56:53;1.90;;;1.70;;
8086;SDS011;4086;54.412;9.980;2023-04-03T02:59:21;4.83;;;1.80;;
8086;SDS011;4086;54.412;9.980;2023-04-03T03:01:47;2.77;;;1.80;;
8086;SDS011;4086;54.412;9.980;2023-04-03T03:04:13;3.50;;;1.90;;
8086;SDS011;4086;54.412;9.980;2023-04-03T03:06:40;3.53;;;1.60;;
8086;SDS011;4086;54.412;9.980;2023-04-03T03:09:06;2.20;;;1.33;;
8086;SDS011;4086;54.412;9.980;2023-04-03T03:11:32;2.33;;;1.30;;
8086;SDS011;4086;54.412;9.980;2023-04-03T03:13:59;1.60;;;1.50;;
8086;SDS011;4086;54.412;9.980;2023-04-03T03:16:27;3.57;;;1.60;;
8086;SDS011;4086;54.412;9.980;2023-04-03T03:18:53;1.73;;;1.50;;
8086;SDS011;4086;54.412;9.980;2023-04-03T03:21:19;2.40;;;1.73;;
8086;SDS011;4086;54.412;9.980;2023-04-03T03:23:46;2.47;;;1.73;;
8086;SDS011;4086;54.412;9.980;2023-04-03T03:26:12;3.20;;;2.10;;
8086;SDS011;4086;54.412;9.980;2023-04-03T03:28:39;3.77;;;2.20;;
8086;SDS011;4086;54.412;9.980;2023-04-03T03:31:05;4.27;;;1.90;;
8086;SDS011;4086;54.412;9.980;2023-04-03T03:33:32;4.97;;;2.10;;
8086;SDS011;4086;54.412;9.980;2023-04-03T03:35:59;2.83;;;1.87;;
8086;SDS011;4086;54.412;9.980;2023-04-03T03:38:26;2.37;;;1.93;;
8086;SDS011;4086;54.412;9.980;2023-04-03T03:40:52;2.47;;;2.03;;
8086;SDS011;4086;54.412;9.980;2023-04-03T03:43:18;2.80;;;1.80;;
8086;SDS011;4086;54.412;9.980;2023-04-03T03:45:45;3.77;;;2.07;;
8086;SDS011;4086;54.412;9.980;2023-04-03T03:48:15;2.10;;;1.90;;
8086;SDS011;4086;54.412;9.980;2023-04-03T03:50:43;3.70;;;2.20;;
8086;SDS011;4086;54.412;9.980;2023-04-03T03:53:09;4.57;;;2.17;;
8086;SDS011;4086;54.412;9.980;2023-04-03T03:55:35;2.17;;;1.73;;
8086;SDS011;4086;54.412;9.980;2023-04-03T03:58:02;4.80;;;1.90;;
8086;SDS011;4086;54.412;9.980;2023-04-03T04:00:28;3.60;;;1.97;;
8086;SDS011;4086;54.412;9.980;2023-04-03T04:02:55;1.97;;;1.70;;
8086;SDS011;4086;54.412;9.980;2023-04-03T04:05:21;1.90;;;1.70;;
8086;SDS011;4086;54.412;9.980;2023-04-03T04:07:49;2.63;;;2.00;;
8086;SDS011;4086;54.412;9.980;2023-04-03T04:10:16;2.60;;;2.00;;
8086;SDS011;4086;54.412;9.980;2023-04-03T04:12:42;2.90;;;2.07;;
8086;SDS011;4086;54.412;9.980;2023-04-03T04:15:08;2.80;;;2.13;;
8086;SDS011;4086;54.412;9.980;2023-04-03T04:17:35;3.20;;;2.00;;
8086;SDS011;4086;54.412;9.980;2023-04-03T04:20:01;4.80;;;2.10;;
8086;SDS011;4086;54.412;9.980;2023-04-03T04:22:29;3.37;;;2.50;;
8086;SDS011;4086;54.412;9.980;2023-04-03T04:24:57;4.13;;;2.20;;
8086;SDS011;4086;54.412;9.980;2023-04-03T04:27:23;3.53;;;2.03;;
8086;SDS011;4086;54.412;9.980;2023-04-03T04:29:49;3.10;;;2.37;;
8086;SDS011;4086;54.412;9.980;2023-04-03T04:32:16;2.90;;;2.00;;
8086;SDS011;4086;54.412;9.980;2023-04-03T04:34:42;2.53;;;2.30;;
8086;SDS011;4086;54.412;9.980;2023-04-03T04:37:08;2.90;;;2.47;;
8086;SDS011;4086;54.412;9.980;2023-04-03T04:39:35;3.87;;;2.43;;
8086;SDS011;4086;54.412;9.980;2023-04-03T04:42:03;4.43;;;2.70;;
8086;SDS011;4086;54.412;9.980;2023-04-03T04:44:29;2.50;;;2.10;;
8086;SDS011;4086;54.412;9.980;2023-04-03T04:46:55;2.50;;;2.30;;
8086;SDS011;4086;54.412;9.980;2023-04-03T04:49:21;4.77;;;2.90;;
8086;SDS011;4086;54.412;9.980;2023-04-03T04:51:48;7.87;;;3.33;;
8086;SDS011;4086;54.412;9.980;2023-04-03T04:54:14;4.77;;;3.00;;
8086;SDS011;4086;54.412;9.980;2023-04-03T04:56:40;4.90;;;2.80;;
8086;SDS011;4086;54.412;9.980;2023-04-03T04:59:08;4.17;;;2.83;;
8086;SDS011;4086;54.412;9.980;2023-04-03T05:01:34;5.10;;;2.87;;
8086;SDS011;4086;54.412;9.980;2023-04-03T05:04:01;4.00;;;3.03;;
8086;SDS011;4086;54.412;9.980;2023-04-03T05:06:27;6.67;;;3.23;;
8086;SDS011;4086;54.412;9.980;2023-04-03T05:08:55;4.87;;;3.50;;
8086;SDS011;4086;54.412;9.980;2023-04-03T05:11:21;6.97;;;4.27;;
8086;SDS011;4086;54.412;9.980;2023-04-03T05:13:47;5.43;;;4.43;;
8086;SDS011;4086;54.412;9.980;2023-04-03T05:16:15;9.27;;;4.80;;
8086;SDS011;4086;54.412;9.980;2023-04-03T05:18:41;7.83;;;4.23;;
8086;SDS011;4086;54.412;9.980;2023-04-03T05:21:07;6.87;;;4.60;;
8086;SDS011;4086;54.412;9.980;2023-04-03T05:23:34;7.10;;;4.30;;
8086;SDS011;4086;54.412;9.980;2023-04-03T05:26:00;6.37;;;4.80;;
8086;SDS011;4086;54.412;9.980;2023-04-03T05:28:26;9.70;;;4.30;;
8086;SDS011;4086;54.412;9.980;2023-04-03T05:30:53;7.13;;;4.80;;
8086;SDS011;4086;54.412;9.980;2023-04-03T05:33:21;7.33;;;4.33;;
8086;SDS011;4086;54.412;9.980;2023-04-03T05:35:48;6.47;;;4.20;;
8086;SDS011;4086;54.412;9.980;2023-04-03T05:38:14;5.87;;;4.30;;
8086;SDS011;4086;54.412;9.980;2023-04-03T05:40:41;7.60;;;3.90;;
8086;SDS011;4086;54.412;9.980;2023-04-03T05:43:07;6.63;;;4.33;;
8086;SDS011;4086;54.412;9.980;2023-04-03T05:45:34;6.43;;;4.63;;
8086;SDS011;4086;54.412;9.980;2023-04-03T05:48:00;7.00;;;4.30;;
8086;SDS011;4086;54.412;9.980;2023-04-03T05:50:27;12.00;;;4.27;;
8086;SDS011;4086;54.412;9.980;2023-04-03T05:52:55;6.87;;;4.60;;
8086;SDS011;4086;54.412;9.980;2023-04-03T05:55:23;7.73;;;4.77;;
8086;SDS011;4086;54.412;9.980;2023-04-03T05:57:49;6.90;;;4.20;;
8086;SDS011;4086;54.412;9.980;2023-04-03T06:00:16;7.27;;;4.53;;
8086;SDS011;4086;54.412;9.980;2023-04-03T06:02:42;7.27;;;5.43;;
8086;SDS011;4086;54.412;9.980;2023-04-03T06:05:09;6.83;;;5.50;;
8086;SDS011;4086;54.412;9.980;2023-04-03T06:07:38;8.60;;;6.30;;
8086;SDS011;4086;54.412;9.980;2023-04-03T06:10:05;8.40;;;5.87;;
8086;SDS011;4086;54.412;9.980;2023-04-03T06:12:31;8.07;;;5.80;;
8086;SDS011;4086;54.412;9.980;2023-04-03T06:14:58;11.60;;;6.13;;
8086;SDS011;4086;54.412;9.980;2023-04-03T06:17:24;8.20;;;5.53;;
8086;SDS011;4086;54.412;9.980;2023-04-03T06:19:51;8.77;;;5.80;;
8086;SDS011;4086;54.412;9.980;2023-04-03T06:22:18;7.13;;;6.07;;
8086;SDS011;4086;54.412;9.980;2023-04-03T06:24:46;7.67;;;5.40;;
8086;SDS011;4086;54.412;9.980;2023-04-03T06:27:12;8.83;;;5.60;;
8086;SDS011;4086;54.412;9.980;2023-04-03T06:29:38;6.30;;;5.70;;
8086;SDS011;4086;54.412;9.980;2023-04-03T06:32:05;7.73;;;5.63;;
8086;SDS011;4086;54.412;9.980;2023-04-03T06:34:31;9.07;;;6.27;;
8086;SDS011;4086;54.412;9.980;2023-04-03T06:36:58;7.67;;;5.60;;
8086;SDS011;4086;54.412;9.980;2023-04-03T06:39:24;6.97;;;5.33;;
8086;SDS011;4086;54.412;9.980;2023-04-03T06:41:52;7.57;;;5.67;;
8086;SDS011;4086;54.412;9.980;2023-04-03T06:44:18;10.30;;;5.77;;
8086;SDS011;4086;54.412;9.980;2023-04-03T06:46:44;11.10;;;6.60;;
8086;SDS011;4086;54.412;9.980;2023-04-03T06:49:11;10.37;;;7.00;;
8086;SDS011;4086;54.412;9.980;2023-04-03T06:51:37;8.30;;;6.47;;
8086;SDS011;4086;54.412;9.980;2023-04-03T06:54:04;8.20;;;6.10;;
8086;SDS011;4086;54.412;9.980;2023-04-03T06:56:31;7.57;;;6.20;;
8086;SDS011;4086;54.412;9.980;2023-04-03T06:58:59;9.13;;;6.57;;
8086;SDS011;4086;54.412;9.980;2023-04-03T07:01:26;8.37;;;5.80;;
8086;SDS011;4086;54.412;9.980;2023-04-03T07:03:52;6.10;;;5.30;;
8086;SDS011;4086;54.412;9.980;2023-04-03T07:06:19;7.37;;;4.97;;
8086;SDS011;4086;54.412;9.980;2023-04-03T07:08:46;8.20;;;4.90;;
8086;SDS011;4086;54.412;9.980;2023-04-03T07:11:13;7.33;;;4.97;;
8086;SDS011;4086;54.412;9.980;2023-04-03T07:13:39;6.17;;;4.63;;
8086;SDS011;4086;54.412;9.980;2023-04-03T07:16:07;7.37;;;5.03;;
8086;SDS011;4086;54.412;9.980;2023-04-03T07:18:34;5.40;;;4.83;;
8086;SDS011;4086;54.412;9.980;2023-04-03T07:21:00;9.40;;;5.23;;
8086;SDS011;4086;54.412;9.980;2023-04-03T07:23:26;6.57;;;3.70;;
8086;SDS011;4086;54.412;9.980;2023-04-03T07:25:53;4.97;;;3.10;;
8086;SDS011;4086;54.412;9.980;2023-04-03T07:28:20;3.63;;;2.27;;
8086;SDS011;4086;54.412;9.980;2023-04-03T07:30:48;5.80;;;2.43;;
8086;SDS011;4086;54.412;9.980;2023-04-03T07:33:17;2.97;;;2.10;;
8086;SDS011;4086;54.412;9.980;2023-04-03T07:35:43;1.73;;;1.50;;
8086;SDS011;4086;54.412;9.980;2023-04-03T07:38:10;2.00;;;1.77;;
8086;SDS011;4086;54.412;9.980;2023-04-03T07:40:37;2.47;;;1.90;;
8086;SDS011;4086;54.412;9.980;2023-04-03T07:43:04;2.70;;;1.77;;
8086;SDS011;4086;54.412;9.980;2023-04-03T07:45:30;3.20;;;1.80;;
8086;SDS011;4086;54.412;9.980;2023-04-03T07:47:57;2.13;;;2.00;;
8086;SDS011;4086;54.412;9.980;2023-04-03T07:50:24;3.63;;;1.70;;
8086;SDS011;4086;54.412;9.980;2023-04-03T07:52:51;3.23;;;1.70;;
8086;SDS011;4086;54.412;9.980;2023-04-03T07:55:19;3.43;;;1.60;;
8086;SDS011;4086;54.412;9.980;2023-04-03T07:57:45;2.47;;;1.50;;
8086;SDS011;4086;54.412;9.980;2023-04-03T08:00:12;3.43;;;1.60;;
8086;SDS011;4086;54.412;9.980;2023-04-03T08:02:39;4.83;;;2.00;;
8086;SDS011;4086;54.412;9.980;2023-04-03T08:05:06;1.83;;;1.70;;
8086;SDS011;4086;54.412;9.980;2023-04-03T08:07:34;2.13;;;1.30;;
8086;SDS011;4086;54.412;9.980;2023-04-03T08:10:00;2.40;;;1.50;;
8086;SDS011;4086;54.412;9.980;2023-04-03T08:12:26;1.67;;;1.23;;
8086;SDS011;4086;54.412;9.980;2023-04-03T08:14:53;1.20;;;1.10;;
8086;SDS011;4086;54.412;9.980;2023-04-03T08:17:19;3.30;;;1.17;;
8086;SDS011;4086;54.412;9.980;2023-04-03T08:19:46;2.30;;;1.47;;
8086;SDS011;4086;54.412;9.980;2023-04-03T08:22:12;2.77;;;1.40;;
8086;SDS011;4086;54.412;9.980;2023-04-03T08:24:39;2.70;;;1.10;;
8086;SDS011;4086;54.412;9.980;2023-04-03T08:27:06;2.07;;;0.93;;
8086;SDS011;4086;54.412;9.980;2023-04-03T08:29:32;4.57;;;1.53;;
8086;SDS011;4086;54.412;9.980;2023-04-03T08:31:58;2.47;;;1.20;;
8086;SDS011;4086;54.412;9.980;2023-04-03T08:34:25;2.50;;;1.50;;
8086;SDS011;4086;54.412;9.980;2023-04-03T08:36:51;3.03;;;1.30;;
8086;SDS011;4086;54.412;9.980;2023-04-03T08:39:18;2.87;;;1.20;;
8086;SDS011;4086;54.412;9.980;2023-04-03T08:41:46;2.70;;;1.30;;
8086;SDS011;4086;54.412;9.980;2023-04-03T08:44:17;1.57;;;1.03;;
8086;SDS011;4086;54.412;9.980;2023-04-03T08:46:52;2.00;;;1.30;;
8086;SDS011;4086;54.412;9.980;2023-04-03T08:49:22;3.23;;;1.43;;
8086;SDS011;4086;54.412;9.980;2023-04-03T08:51:49;4.00;;;1.57;;
8086;SDS011;4086;54.412;9.980;2023-04-03T08:54:20;1.40;;;1.30;;
8086;SDS011;4086;54.412;9.980;2023-04-03T08:56:49;1.30;;;1.20;;
8086;SDS011;4086;54.412;9.980;2023-04-03T08:59:17;2.40;;;1.47;;
8086;SDS011;4086;54.412;9.980;2023-04-03T09:01:47;2.67;;;1.40;;
8086;SDS011;4086;54.412;9.980;2023-04-03T09:04:14;2.80;;;1.60;;
8086;SDS011;4086;54.412;9.980;2023-04-03T09:06:41;2.17;;;1.77;;
8086;SDS011;4086;54.412;9.980;2023-04-03T09:09:11;3.30;;;1.53;;
8086;SDS011;4086;54.412;9.980;2023-04-03T09:11:42;4.13;;;1.67;;
8086;SDS011;4086;54.412;9.980;2023-04-03T09:14:13;2.80;;;1.93;;
8086;SDS011;4086;54.412;9.980;2023-04-03T09:16:43;2.93;;;1.70;;
8086;SDS011;4086;54.412;9.980;2023-04-03T09:19:15;2.80;;;2.20;;
8086;SDS011;4086;54.412;9.980;2023-04-03T09:21:45;3.50;;;1.90;;
8086;SDS011;4086;54.412;9.980;2023-04-03T09:24:12;2.57;;;1.87;;
8086;SDS011;4086;54.412;9.980;2023-04-03T09:26:40;3.00;;;2.00;;
8086;SDS011;4086;54.412;9.980;2023-04-03T09:29:08;2.10;;;1.70;;
8086;SDS011;4086;54.412;9.980;2023-04-03T09:31:41;4.43;;;2.07;;
8086;SDS011;4086;54.412;9.980;2023-04-03T09:34:10;2.17;;;1.97;;
8086;SDS011;4086;54.412;9.980;2023-04-03T09:36:41;3.80;;;1.87;;
8086;SDS011;4086;54.412;9.980;2023-04-03T09:39:10;5.77;;;1.70;;
8086;SDS011;4086;54.412;9.980;2023-04-03T09:41:36;2.67;;;1.60;;
8086;SDS011;4086;54.412;9.980;2023-04-03T09:44:02;2.00;;;1.70;;
8086;SDS011;4086;54.412;9.980;2023-04-03T09:46:29;3.27;;;1.50;;
8086;SDS011;4086;54.412;9.980;2023-04-03T09:48:58;3.00;;;1.60;;
8086;SDS011;4086;54.412;9.980;2023-04-03T09:51:26;2.60;;;1.60;;
8086;SDS011;4086;54.412;9.980;2023-04-03T09:53:53;1.87;;;1.40;;
8086;SDS011;4086;54.412;9.980;2023-04-03T09:56:20;4.70;;;1.73;;
8086;SDS011;4086;54.412;9.980;2023-04-03T09:58:48;3.63;;;1.10;;
8086;SDS011;4086;54.412;9.980;2023-04-03T10:01:23;1.43;;;0.90;;
8086;SDS011;4086;54.412;9.980;2023-04-03T10:04:03;1.40;;;1.07;;
8086;SDS011;4086;54.412;9.980;2023-04-03T10:06:30;1.70;;;1.27;;
8086;SDS011;4086;54.412;9.980;2023-04-03T10:08:58;3.97;;;1.47;;
8086;SDS011;4086;54.412;9.980;2023-04-03T10:11:25;2.47;;;1.10;;
8086;SDS011;4086;54.412;9.980;2023-04-03T10:13:52;2.87;;;1.10;;
8086;SDS011;4086;54.412;9.980;2023-04-03T10:16:20;1.53;;;1.10;;
8086;SDS011;4086;54.412;9.980;2023-04-03T10:18:49;2.00;;;1.00;;
8086;SDS011;4086;54.412;9.980;2023-04-03T10:21:35;1.27;;;1.17;;
8086;SDS011;4086;54.412;9.980;2023-04-03T10:24:06;1.70;;;1.17;;
8086;SDS011;4086;54.412;9.980;2023-04-03T10:26:36;2.00;;;1.27;;
8086;SDS011;4086;54.412;9.980;2023-04-03T10:29:06;1.37;;;1.10;;
8086;SDS011;4086;54.412;9.980;2023-04-03T10:31:37;2.27;;;1.13;;
8086;SDS011;4086;54.412;9.980;2023-04-03T10:34:10;1.33;;;1.20;;
8086;SDS011;4086;54.412;9.980;2023-04-03T10:36:46;1.43;;;1.30;;
8086;SDS011;4086;54.412;9.980;2023-04-03T10:39:19;2.13;;;1.03;;
8086;SDS011;4086;54.412;9.980;2023-04-03T10:41:55;2.77;;;1.30;;
8086;SDS011;4086;54.412;9.980;2023-04-03T10:44:28;1.93;;;1.30;;
8086;SDS011;4086;54.412;9.980;2023-04-03T10:46:58;3.27;;;1.20;;
8086;SDS011;4086;54.412;9.980;2023-04-03T10:49:32;2.80;;;1.20;;
8086;SDS011;4086;54.412;9.980;2023-04-03T10:52:05;2.67;;;1.37;;
8086;SDS011;4086;54.412;9.980;2023-04-03T10:54:33;1.70;;;1.23;;
8086;SDS011;4086;54.412;9.980;2023-04-03T10:57:02;2.47;;;1.23;;
8086;SDS011;4086;54.412;9.980;2023-04-03T10:59:30;1.83;;;1.00;;
8086;SDS011;4086;54.412;9.980;2023-04-03T11:01:59;1.53;;;1.30;;
8086;SDS011;4086;54.412;9.980;2023-04-03T11:04:27;2.10;;;0.90;;
8086;SDS011;4086;54.412;9.980;2023-04-03T11:06:56;1.83;;;1.10;;
8086;SDS011;4086;54.412;9.980;2023-04-03T11:09:26;1.23;;;1.00;;
8086;SDS011;4086;54.412;9.980;2023-04-03T11:11:53;2.27;;;1.10;;
8086;SDS011;4086;54.412;9.980;2023-04-03T11:14:24;1.53;;;0.80;;
8086;SDS011;4086;54.412;9.980;2023-04-03T11:16:53;1.30;;;0.90;;
8086;SDS011;4086;54.412;9.980;2023-04-03T11:19:27;2.13;;;1.20;;
8086;SDS011;4086;54.412;9.980;2023-04-03T11:21:56;2.70;;;1.10;;
8086;SDS011;4086;54.412;9.980;2023-04-03T11:24:24;1.20;;;1.03;;
8086;SDS011;4086;54.412;9.980;2023-04-03T11:26:52;1.33;;;0.87;;
8086;SDS011;4086;54.412;9.980;2023-04-03T11:29:20;1.53;;;1.10;;
8086;SDS011;4086;54.412;9.980;2023-04-03T11:31:55;1.00;;;0.90;;
8086;SDS011;4086;54.412;9.980;2023-04-03T11:34:28;1.67;;;0.93;;
8086;SDS011;4086;54.412;9.980;2023-04-03T11:37:01;1.27;;;1.10;;
8086;SDS011;4086;54.412;9.980;2023-04-03T11:39:31;2.03;;;1.07;;
8086;SDS011;4086;54.412;9.980;2023-04-03T11:44:41;1.20;;;0.63;;
8086;SDS011;4086;54.412;9.980;2023-04-03T11:47:08;0.63;;;0.63;;
8086;SDS011;4086;54.412;9.980;2023-04-03T11:55:35;1.10;;;0.77;;
8086;SDS011;4086;54.412;9.980;2023-04-03T11:58:10;1.37;;;0.80;;
8086;SDS011;4086;54.412;9.980;2023-04-03T12:00:47;1.47;;;1.00;;
8086;SDS011;4086;54.412;9.980;2023-04-03T12:03:35;1.23;;;0.87;;
8086;SDS011;4086;54.412;9.980;2023-04-03T12:09:21;1.60;;;0.90;;
8086;SDS011;4086;54.412;9.980;2023-04-03T12:11:48;1.87;;;0.90;;
8086;SDS011;4086;54.412;9.980;2023-04-03T12:14:16;1.60;;;0.93;;
8086;SDS011;4086;54.412;9.980;2023-04-03T12:16:43;1.57;;;0.83;;
8086;SDS011;4086;54.412;9.980;2023-04-03T12:22:06;1.73;;;1.10;;
8086;SDS011;4086;54.412;9.980;2023-04-03T12:24:33;0.80;;;0.80;;
8086;SDS011;4086;54.412;9.980;2023-04-03T12:27:05;2.00;;;1.20;;
8086;SDS011;4086;54.412;9.980;2023-04-03T12:29:36;2.43;;;1.13;;
8086;SDS011;4086;54.412;9.980;2023-04-03T12:32:07;1.13;;;1.00;;
8086;SDS011;4086;54.412;9.980;2023-04-03T12:34:45;1.70;;;1.10;;
8086;SDS011;4086;54.412;9.980;2023-04-03T12:37:19;1.47;;;1.20;;
8086;SDS011;4086;54.412;9.980;2023-04-03T12:39:51;2.40;;;2.00;;
8086;SDS011;4086;54.412;9.980;2023-04-03T12:42:24;2.60;;;1.37;;
8086;SDS011;4086;54.412;9.980;2023-04-03T12:44:58;1.20;;;1.10;;
8086;SDS011;4086;54.412;9.980;2023-04-03T12:47:27;2.10;;;1.13;;
8086;SDS011;4086;54.412;9.980;2023-04-03T12:49:53;1.27;;;1.13;;
8086;SDS011;4086;54.412;9.980;2023-04-03T12:52:25;3.53;;;1.10;;
8086;SDS011;4086;54.412;9.980;2023-04-03T12:54:54;1.07;;;0.90;;
8086;SDS011;4086;54.412;9.980;2023-04-03T12:57:21;3.50;;;1.00;;
8086;SDS011;4086;54.412;9.980;2023-04-03T12:59:49;1.70;;;0.90;;
8086;SDS011;4086;54.412;9.980;2023-04-03T13:02:22;1.40;;;1.00;;
8086;SDS011;4086;54.412;9.980;2023-04-03T13:04:49;1.47;;;0.83;;
8086;SDS011;4086;54.412;9.980;2023-04-03T13:07:20;1.53;;;0.90;;
8086;SDS011;4086;54.412;9.980;2023-04-03T13:09:54;2.00;;;0.90;;
8086;SDS011;4086;54.412;9.980;2023-04-03T13:12:21;1.87;;;1.10;;
8086;SDS011;4086;54.412;9.980;2023-04-03T13:14:51;0.87;;;0.83;;
8086;SDS011;4086;54.412;9.980;2023-04-03T13:17:17;1.03;;;0.90;;
8086;SDS011;4086;54.412;9.980;2023-04-03T13:19:45;1.73;;;1.10;;
8086;SDS011;4086;54.412;9.980;2023-04-03T13:22:15;1.73;;;1.03;;
8086;SDS011;4086;54.412;9.980;2023-04-03T13:24:43;1.20;;;0.90;;
8086;SDS011;4086;54.412;9.980;2023-04-03T13:27:12;1.87;;;0.90;;
8086;SDS011;4086;54.412;9.980;2023-04-03T13:29:38;0.67;;;0.60;;
8086;SDS011;4086;54.412;9.980;2023-04-03T13:32:05;1.03;;;0.90;;
8086;SDS011;4086;54.412;9.980;2023-04-03T13:34:35;0.87;;;0.80;;
8086;SDS011;4086;54.412;9.980;2023-04-03T13:37:04;1.53;;;0.90;;
8086;SDS011;4086;54.412;9.980;2023-04-03T13:39:32;1.80;;;1.10;;
8086;SDS011;4086;54.412;9.980;2023-04-03T13:41:59;1.23;;;0.90;;
8086;SDS011;4086;54.412;9.980;2023-04-03T13:44:32;1.30;;;1.00;;
8086;SDS011;4086;54.412;9.980;2023-04-03T13:47:00;1.63;;;0.93;;
8086;SDS011;4086;54.412;9.980;2023-04-03T13:49:28;1.43;;;0.97;;
8086;SDS011;4086;54.412;9.980;2023-04-03T13:51:55;2.20;;;1.20;;
8086;SDS011;4086;54.412;9.980;2023-04-03T13:54:23;4.00;;;1.30;;
8086;SDS011;4086;54.412;9.980;2023-04-03T13:56:52;1.00;;;0.83;;
8086;SDS011;4086;54.412;9.980;2023-04-03T13:59:23;1.63;;;0.70;;
8086;SDS011;4086;54.412;9.980;2023-04-03T14:01:50;0.70;;;0.70;;
8086;SDS011;4086;54.412;9.980;2023-04-03T14:04:19;2.37;;;1.00;;
8086;SDS011;4086;54.412;9.980;2023-04-03T14:06:46;1.77;;;1.10;;
8086;SDS011;4086;54.412;9.980;2023-04-03T14:09:13;1.57;;;0.80;;
8086;SDS011;4086;54.412;9.980;2023-04-03T14:11:41;1.10;;;1.00;;
8086;SDS011;4086;54.412;9.980;2023-04-03T14:14:11;1.80;;;0.73;;
8086;SDS011;4086;54.412;9.980;2023-04-03T14:16:39;2.10;;;1.23;;
8086;SDS011;4086;54.412;9.980;2023-04-03T14:19:06;1.77;;;0.80;;
8086;SDS011;4086;54.412;9.980;2023-04-03T14:21:33;1.23;;;0.90;;
8086;SDS011;4086;54.412;9.980;2023-04-03T14:23:59;1.60;;;1.20;;
8086;SDS011;4086;54.412;9.980;2023-04-03T14:26:25;1.27;;;1.10;;
8086;SDS011;4086;54.412;9.980;2023-04-03T14:28:54;1.83;;;1.10;;
8086;SDS011;4086;54.412;9.980;2023-04-03T14:31:20;1.30;;;1.00;;
8086;SDS011;4086;54.412;9.980;2023-04-03T14:33:47;1.30;;;1.20;;
8086;SDS011;4086;54.412;9.980;2023-04-03T14:36:14;1.23;;;1.10;;
8086;SDS011;4086;54.412;9.980;2023-04-03T14:38:40;3.37;;;1.30;;
8086;SDS011;4086;54.412;9.980;2023-04-03T14:41:07;1.67;;;1.10;;
8086;SDS011;4086;54.412;9.980;2023-04-03T14:43:33;1.60;;;1.00;;
8086;SDS011;4086;54.412;9.980;2023-04-03T14:46:01;2.47;;;1.30;;
8086;SDS011;4086;54.412;9.980;2023-04-03T14:48:27;2.20;;;1.20;;
8086;SDS011;4086;54.412;9.980;2023-04-03T14:50:54;1.20;;;1.10;;
8086;SDS011;4086;54.412;9.980;2023-04-03T14:53:20;2.20;;;1.30;;
8086;SDS011;4086;54.412;9.980;2023-04-03T14:55:49;2.13;;;1.10;;
8086;SDS011;4086;54.412;9.980;2023-04-03T14:58:17;2.43;;;1.20;;
8086;SDS011;4086;54.412;9.980;2023-04-03T15:00:44;1.40;;;1.30;;
8086;SDS011;4086;54.412;9.980;2023-04-03T15:03:15;1.57;;;1.30;;
8086;SDS011;4086;54.412;9.980;2023-04-03T15:05:42;2.00;;;1.27;;
8086;SDS011;4086;54.412;9.980;2023-04-03T15:08:17;2.30;;;1.60;;
8086;SDS011;4086;54.412;9.980;2023-04-03T15:10:45;1.77;;;1.30;;
8086;SDS011;4086;54.412;9.980;2023-04-03T15:13:11;2.73;;;1.17;;
8086;SDS011;4086;54.412;9.980;2023-04-03T15:15:38;2.17;;;1.40;;
8086;SDS011;4086;54.412;9.980;2023-04-03T15:18:04;2.50;;;1.60;;
8086;SDS011;4086;54.412;9.980;2023-04-03T15:20:32;1.30;;;1.20;;
8086;SDS011;4086;54.412;9.980;2023-04-03T15:22:59;1.60;;;1.40;;
8086;SDS011;4086;54.412;9.980;2023-04-03T15:25:26;2.50;;;1.40;;
8086;SDS011;4086;54.412;9.980;2023-04-03T15:27:53;2.53;;;1.37;;
8086;SDS011;4086;54.412;9.980;2023-04-03T15:30:19;3.00;;;1.20;;
8086;SDS011;4086;54.412;9.980;2023-04-03T15:32:46;2.07;;;1.30;;
8086;SDS011;4086;54.412;9.980;2023-04-03T15:35:12;1.53;;;1.20;;